Hlavní strana
METAR-TAF:

METAR-TAF

Letiště :

Varna, Bulharsko

zeměpisná šířka: 43-12N, zeměpisná délka: 027-55E, výška: 41 m

Aktuální stav počasí

Zpráva byla vytvořena před 35 minutami, v 16:30 UTC
Severoseverovýchodní vítr 5 kt
Teplota 4°C
Vlhkost vzduchu 75%
Tlak 1027 hPa
Viditelnost 10 km a více
Zataženo ve výšce 3100 ft

METAR: LBWN 181630Z 02005KT 9999 OVC031 04/00 Q1027 NOSIG

Čas: 19:05 (17:05 UTC)

Předpověď počasí

Zpráva byla vytvořena před 6 hodinami a 5 minutami, v 11:00 UTC
Předpověď platná od 18 v 12 UTC do 19 v 12 UTC
Severoseverovýchodní vítr 10 kt
Viditelnost 10 km a více
Oblačno až skoro zataženo ve výšce 3000 ft

TAF: LBWN 181100Z 1812/1912 02010KT 9999 BKN030

Stav a předpovědi počasí z více než 4 000 letišť (zprávy METAR a TAF).

Červené a žluté tečky na mapě představují dostupné meteorologické stanice.

Když kurzor umístíte na tečku, zobrazí se název stanice.

Pak kliknutím zobrazíte stav a předpověď počasí.

Chcete-li změnit mapu, kliknutím na zelené tlačítko se znaménkem +mapu přiblížíte, kliknutím na zelené tlačítko se znaménkem – mapu oddálíte a kliknutím na zelené šipky přejdete na sousední mapy.


METAR-TAF: